createdAt,value
2023-04-10T00:03:17.900Z,44.97
2023-04-10T00:07:20.477Z,41.67
2023-04-10T00:11:22.474Z,38.35
2023-04-10T00:15:24.511Z,40.13
2023-04-10T00:19:26.531Z,38.13
2023-04-10T00:23:28.498Z,40.50
2023-04-10T00:27:30.449Z,41.72
2023-04-10T00:31:32.745Z,39.08
2023-04-10T00:35:34.759Z,41.65
2023-04-10T00:39:36.795Z,36.10
2023-04-10T00:43:38.856Z,39.13
2023-04-10T00:47:41.100Z,46.35
2023-04-10T00:51:44.582Z,40.67
2023-04-10T00:55:47.138Z,38.47
2023-04-10T00:59:51.006Z,41.20
2023-04-10T01:03:55.107Z,41.20
2023-04-10T01:08:43.080Z,42.97
2023-04-10T01:13:11.420Z,42.58
2023-04-10T01:17:21.876Z,41.10
2023-04-10T01:21:25.176Z,48.47
2023-04-10T01:26:01.199Z,42.65
2023-04-10T01:30:06.668Z,44.92
2023-04-10T01:34:15.693Z,43.05
2023-04-10T01:38:20.681Z,42.25
2023-04-10T01:42:23.233Z,45.80
2023-04-10T01:46:26.630Z,47.08
2023-04-10T01:50:30.542Z,43.20
2023-04-10T01:54:33.457Z,48.72
2023-04-10T01:58:36.834Z,46.75
2023-04-10T02:02:40.312Z,45.63
2023-04-10T02:06:51.457Z,44.80
2023-04-10T02:11:11.584Z,52.47
2023-04-10T02:15:16.842Z,43.45
2023-04-10T02:19:21.094Z,46.15
2023-04-10T02:23:23.847Z,45.88
2023-04-10T02:27:29.093Z,50.40
2023-04-10T02:31:31.200Z,46.88
2023-04-10T02:35:34.383Z,45.90
2023-04-10T02:39:38.413Z,46.72
2023-04-10T02:43:40.569Z,45.60
2023-04-10T02:47:43.316Z,43.25
2023-04-10T02:51:46.080Z,49.67
2023-04-10T02:55:48.107Z,47.40
2023-04-10T02:59:51.377Z,47.05
2023-04-10T03:03:54.504Z,52.63
2023-04-10T03:08:02.028Z,51.35
2023-04-10T03:12:03.938Z,45.13
2023-04-10T03:16:06.943Z,42.30
2023-04-10T03:20:10.361Z,47.53
2023-04-10T03:24:12.521Z,46.83
2023-04-10T03:28:14.687Z,49.47
2023-04-10T03:32:16.987Z,50.35
2023-04-10T03:36:19.086Z,47.47
2023-04-10T03:40:23.979Z,49.90
2023-04-10T03:44:26.266Z,55.05
2023-04-10T03:48:30.686Z,49.13
2023-04-10T03:52:33.229Z,46.50
2023-04-10T03:56:35.443Z,44.90
2023-04-10T04:00:37.910Z,46.47
2023-04-10T04:04:58.492Z,42.28
2023-04-10T04:09:18.809Z,46.63
2023-04-10T04:13:37.496Z,47.35
2023-04-10T04:17:46.140Z,39.28
2023-04-10T04:22:06.731Z,47.65
2023-04-10T04:26:31.295Z,37.72
2023-04-10T04:30:46.779Z,38.08
2023-04-10T04:34:55.112Z,35.83
2023-04-10T04:39:06.685Z,33.40
2023-04-10T04:43:27.870Z,43.40
2023-04-10T04:47:48.727Z,37.25
2023-04-10T04:51:55.857Z,35.03
2023-04-10T04:56:17.078Z,33.55
2023-04-10T05:00:18.704Z,31.98
2023-04-10T05:04:42.870Z,36.55
2023-04-10T05:09:10.951Z,36.42
2023-04-10T05:13:36.583Z,38.35
2023-04-10T05:17:55.446Z,36.22
2023-04-10T05:22:18.460Z,40.58
2023-04-10T05:26:20.928Z,37.83
2023-04-10T05:30:27.895Z,35.92
2023-04-10T05:34:39.445Z,32.83
2023-04-10T05:43:08.493Z,32.88
2023-04-10T05:47:29.886Z,33.42
2023-04-10T05:51:53.419Z,35.83
2023-04-10T05:56:13.784Z,34.30
2023-04-10T06:00:21.102Z,34.40
2023-04-10T06:04:46.619Z,32.88
2023-04-10T06:08:49.855Z,33.83
2023-04-10T06:12:52.093Z,31.83
2023-04-10T06:16:57.089Z,30.52
2023-04-10T06:21:02.069Z,24.20
2023-04-10T06:25:05.460Z,26.05
2023-04-10T06:29:07.651Z,25.23
2023-04-10T06:33:09.962Z,23.52
2023-04-10T06:37:16.370Z,20.75
2023-04-10T06:41:18.754Z,21.20
2023-04-10T06:45:21.223Z,21.23
2023-04-10T06:49:24.283Z,19.27
2023-04-10T06:53:27.188Z,21.67
2023-04-10T06:57:29.239Z,19.80
2023-04-10T07:01:31.317Z,17.92
2023-04-10T07:05:32.961Z,18.45
2023-04-10T07:09:34.978Z,18.02
2023-04-10T07:13:38.900Z,19.02
2023-04-10T07:17:41.030Z,18.58
2023-04-10T07:21:43.493Z,16.30
2023-04-10T07:25:46.618Z,15.30
2023-04-10T07:29:48.690Z,16.05
2023-04-10T07:33:51.101Z,13.40
2023-04-10T07:37:54.591Z,14.18
2023-04-10T07:41:56.767Z,11.95
2023-04-10T07:45:58.748Z,11.85
2023-04-10T07:50:00.817Z,10.88
2023-04-10T07:54:04.017Z,10.20
2023-04-10T07:58:06.376Z,10.43
2023-04-10T08:02:08.631Z,11.10
2023-04-10T08:06:11.653Z,10.15
2023-04-10T08:10:13.648Z,10.35
2023-04-10T08:14:18.355Z,8.60
2023-04-10T08:18:20.850Z,9.50
2023-04-10T08:22:22.869Z,8.25
2023-04-10T08:26:26.412Z,7.45
2023-04-10T08:30:28.472Z,7.00
2023-04-10T08:34:30.457Z,8.20
2023-04-10T08:38:32.483Z,9.00
2023-04-10T08:42:35.836Z,8.00
2023-04-10T08:46:43.789Z,7.55
2023-04-10T08:50:46.923Z,6.67
2023-04-10T08:54:53.836Z,6.97
2023-04-10T08:58:56.066Z,6.38
2023-04-10T09:02:59.035Z,6.65
2023-04-10T09:07:01.124Z,6.18
2023-04-10T09:11:03.305Z,6.53
2023-04-10T09:15:05.806Z,7.03
2023-04-10T09:19:07.896Z,6.93
2023-04-10T09:23:22.155Z,6.15
2023-04-10T09:27:31.989Z,5.47
2023-04-10T09:31:38.627Z,6.03
2023-04-10T09:35:41.075Z,4.68
2023-04-10T09:39:43.864Z,5.15
2023-04-10T09:43:46.926Z,4.20
2023-04-10T09:48:06.717Z,4.72
2023-04-10T09:52:38.330Z,5.10
2023-04-10T09:56:41.227Z,4.70
2023-04-10T10:00:46.102Z,5.13
2023-04-10T10:04:49.604Z,4.88
2023-04-10T10:08:52.405Z,4.88
2023-04-10T10:13:01.756Z,4.00
2023-04-10T10:17:10.847Z,3.20
2023-04-10T10:21:13.909Z,4.05
2023-04-10T10:25:16.506Z,3.35
2023-04-10T10:29:19.696Z,4.18
2023-04-10T10:33:21.969Z,3.80
2023-04-10T10:37:24.060Z,4.20
2023-04-10T10:41:35.672Z,3.70
2023-04-10T10:45:42.762Z,4.05
2023-04-10T10:49:58.189Z,3.95
2023-04-10T10:54:00.243Z,4.22
2023-04-10T10:58:08.869Z,3.60
2023-04-10T11:02:18.487Z,4.07
2023-04-10T11:06:43.495Z,3.85
2023-04-10T11:11:23.536Z,3.22
2023-04-10T11:15:26.233Z,2.92
2023-04-10T11:19:28.579Z,3.97
2023-04-10T11:23:30.819Z,3.35
2023-04-10T11:27:40.523Z,3.08
2023-04-10T11:31:44.035Z,3.78
2023-04-10T11:35:46.313Z,2.88
2023-04-10T11:39:48.623Z,3.65
2023-04-10T11:43:53.370Z,3.40
2023-04-10T11:47:55.467Z,3.75
2023-04-10T11:51:57.554Z,3.38
2023-04-10T11:55:59.765Z,3.80
2023-04-10T12:00:01.902Z,3.47
2023-04-10T12:04:04.070Z,3.20
2023-04-10T12:08:06.619Z,3.85
2023-04-10T12:12:08.531Z,3.35
2023-04-10T12:16:11.016Z,2.90
2023-04-10T12:20:16.483Z,3.60
2023-04-10T12:24:47.423Z,3.47
2023-04-10T12:28:54.879Z,2.97
2023-04-10T12:32:57.532Z,3.45
2023-04-10T12:36:59.596Z,3.20
2023-04-10T12:41:02.016Z,3.35
2023-04-10T12:45:04.218Z,2.72
2023-04-10T12:49:14.374Z,3.38
2023-04-10T12:53:16.566Z,3.50
2023-04-10T12:57:27.099Z,3.55
2023-04-10T13:01:29.181Z,3.95
2023-04-10T13:05:31.427Z,4.57
2023-04-10T13:09:33.435Z,5.03
2023-04-10T13:13:35.537Z,4.95
2023-04-10T13:17:37.669Z,6.00
2023-04-10T13:21:39.808Z,4.75
2023-04-10T13:25:42.960Z,4.78
2023-04-10T13:29:45.072Z,5.07
2023-04-10T13:33:48.166Z,7.30
2023-04-10T13:37:53.164Z,5.25
2023-04-10T13:41:55.821Z,6.40
2023-04-10T13:45:57.846Z,5.80
2023-04-10T13:49:59.938Z,4.32
2023-04-10T13:54:04.664Z,4.07
2023-04-10T13:58:07.171Z,3.50
2023-04-10T14:02:09.711Z,2.95
2023-04-10T14:06:11.512Z,3.35
2023-04-10T14:10:13.492Z,3.97
2023-04-10T14:14:15.716Z,4.85
2023-04-10T14:18:18.423Z,4.28
2023-04-10T14:22:21.127Z,5.55
2023-04-10T14:26:23.484Z,5.75
2023-04-10T14:30:30.644Z,8.13
2023-04-10T14:34:32.664Z,8.55
2023-04-10T14:38:36.707Z,10.10
2023-04-10T14:42:38.797Z,11.18
2023-04-10T14:46:40.886Z,10.55
2023-04-10T14:50:43.017Z,8.82
2023-04-10T14:54:45.003Z,8.90
2023-04-10T14:58:47.661Z,6.35
2023-04-10T15:02:49.814Z,4.68
2023-04-10T15:06:52.271Z,4.68
2023-04-10T15:10:54.974Z,3.88
2023-04-10T15:14:57.331Z,4.95
2023-04-10T15:18:59.297Z,4.32
2023-04-10T15:23:02.292Z,4.70
2023-04-10T15:27:04.430Z,4.90
2023-04-10T15:31:06.679Z,3.90
2023-04-10T15:35:08.789Z,4.18
2023-04-10T15:39:11.180Z,4.07
2023-04-10T15:43:13.269Z,3.50
2023-04-10T15:47:15.402Z,3.40
2023-04-10T15:51:17.470Z,2.97
2023-04-10T15:55:19.521Z,5.68
2023-04-10T15:59:21.821Z,4.00
2023-04-10T16:03:24.046Z,2.80
2023-04-10T16:07:26.593Z,3.10
2023-04-10T16:11:28.955Z,3.50
2023-04-10T16:15:34.489Z,3.63
2023-04-10T16:19:36.915Z,3.40
2023-04-10T16:23:39.092Z,4.80
2023-04-10T16:27:41.142Z,4.40
2023-04-10T16:31:43.191Z,2.78
2023-04-10T16:35:45.547Z,3.35
2023-04-10T16:39:47.861Z,3.60
2023-04-10T16:43:49.910Z,4.00
2023-04-10T16:47:52.004Z,3.83
2023-04-10T16:51:54.417Z,4.20
2023-04-10T16:55:58.030Z,5.00
2023-04-10T17:00:00.636Z,5.53
2023-04-10T17:04:03.188Z,6.25
2023-04-10T17:08:05.308Z,6.18
2023-04-10T17:12:07.387Z,6.05
2023-04-10T17:16:09.576Z,6.57
2023-04-10T17:20:12.362Z,6.22
2023-04-10T17:24:14.418Z,5.50
2023-04-10T17:28:16.552Z,6.78
2023-04-10T17:32:18.607Z,6.85
2023-04-10T17:36:20.868Z,8.35
2023-04-10T17:40:24.944Z,7.70
2023-04-10T17:44:27.407Z,8.25
2023-04-10T17:48:29.717Z,10.00
2023-04-10T17:52:32.112Z,11.20
2023-04-10T17:56:34.390Z,11.77
2023-04-10T18:00:36.596Z,11.73
2023-04-10T18:04:38.974Z,12.50
2023-04-10T18:08:41.514Z,12.85
2023-04-10T18:12:44.362Z,14.23
2023-04-10T18:16:46.835Z,14.20
2023-04-10T18:20:49.209Z,15.48
2023-04-10T18:24:51.562Z,14.73
2023-04-10T18:28:53.905Z,16.02
2023-04-10T18:32:56.487Z,15.57
2023-04-10T18:36:59.502Z,15.48
2023-04-10T18:41:01.964Z,15.80
2023-04-10T18:45:05.033Z,16.38
2023-04-10T18:49:07.676Z,17.10
2023-04-10T18:53:10.022Z,16.35
2023-04-10T18:57:13.450Z,20.15
2023-04-10T19:01:17.511Z,21.00
2023-04-10T19:05:20.006Z,20.63
2023-04-10T19:09:22.187Z,22.55
2023-04-10T19:13:24.248Z,22.25
2023-04-10T19:17:27.712Z,24.10
2023-04-10T19:21:29.850Z,26.77
2023-04-10T19:25:32.692Z,28.58
2023-04-10T19:29:35.149Z,31.02
2023-04-10T19:33:37.272Z,30.85
2023-04-10T19:37:39.293Z,34.50
2023-04-10T19:41:42.559Z,30.95
2023-04-10T19:45:44.786Z,34.70
2023-04-10T19:49:46.975Z,35.05
2023-04-10T19:53:49.293Z,32.85
2023-04-10T19:57:51.982Z,43.80
2023-04-10T20:01:55.906Z,38.10
2023-04-10T20:06:02.752Z,38.97
2023-04-10T20:10:05.240Z,43.72
2023-04-10T20:14:07.318Z,44.20
2023-04-10T20:18:09.325Z,45.78
2023-04-10T20:22:11.399Z,45.70
2023-04-10T20:26:13.965Z,45.70
2023-04-10T20:30:16.008Z,44.28
2023-04-10T20:34:18.096Z,44.45
2023-04-10T20:38:20.069Z,43.25
2023-04-10T20:42:23.192Z,45.20
2023-04-10T20:46:27.342Z,43.33
2023-04-10T20:50:29.412Z,48.72
2023-04-10T20:54:31.415Z,54.55
2023-04-10T20:58:33.469Z,53.70
2023-04-10T21:02:35.765Z,55.58
2023-04-10T21:06:37.917Z,50.00
2023-04-10T21:10:44.177Z,50.00
2023-04-10T21:14:46.225Z,51.70
2023-04-10T21:18:48.251Z,42.13
2023-04-10T21:22:50.056Z,45.47
2023-04-10T21:26:51.994Z,44.80
2023-04-10T21:30:54.040Z,44.28
2023-04-10T21:34:56.086Z,45.13
2023-04-10T21:38:58.405Z,40.53
2023-04-10T21:43:01.584Z,44.10
2023-04-10T21:47:04.473Z,43.90
2023-04-10T21:51:06.565Z,41.97
2023-04-10T21:55:09.253Z,41.17
2023-04-10T21:59:11.530Z,38.53
2023-04-10T22:03:16.312Z,35.95
2023-04-10T22:07:18.496Z,40.00
2023-04-10T22:11:20.822Z,44.00
2023-04-10T22:15:22.815Z,38.42
2023-04-10T22:19:25.741Z,38.28
2023-04-10T22:23:27.856Z,37.97
2023-04-10T22:27:29.900Z,35.65
2023-04-10T22:31:31.919Z,33.10
2023-04-10T22:35:34.124Z,33.83
2023-04-10T22:39:36.156Z,32.58
2023-04-10T22:43:38.153Z,34.67
2023-04-10T22:47:40.193Z,31.92
2023-04-10T22:51:42.199Z,32.17
2023-04-10T22:55:44.218Z,31.67
2023-04-10T22:59:46.330Z,30.80
2023-04-10T23:03:49.757Z,31.60
2023-04-10T23:07:51.947Z,32.17
2023-04-10T23:11:54.016Z,32.38
2023-04-10T23:15:56.458Z,31.65
2023-04-10T23:19:58.492Z,34.10
2023-04-10T23:24:00.675Z,35.72
2023-04-10T23:28:03.645Z,32.55
2023-04-10T23:32:05.766Z,30.80
2023-04-10T23:36:08.320Z,34.78
2023-04-10T23:40:10.926Z,31.90
2023-04-10T23:44:12.941Z,31.55
2023-04-10T23:48:15.031Z,33.40
2023-04-10T23:52:17.077Z,32.83
2023-04-10T23:56:20.858Z,33.38
